Avon, CO

01:31 PM MDT em 27 de Maio de 2015 (GMT -0600)
Kremmling | | Change Station
CLOSE
Current Station
Aeroporto
Location: Kremmling,
Altitude: 7411 ft
Estações Meteorológicas Próximas

Elev 7411 ft 40.05 °N, 106.37 °W | Updated 17 minutes ago

Céu Encoberto
Céu Encoberto
64 °F
Aparente 64 °F
N
8
Vento Variável Vento de ONO
Gusts 17 mph

Hoje
Máxima -- | Mínima -- °F
--% Possibilidade de Precip.
Ontem
Máxima -- | Mínima -- °F
Precip. -- pol
5:42 AM 8:23 PM
Lua crescente, 69% visible
Pressão 30.19 pol
Visibilidade 10.0 milhas
Nuvens Nuvens Dispersas 7000 ft
Nuvens Dispersas 8500 ft
Muito Nublado 9500 ft
Ponto de Orvalho 32 °F
Humidade 30%
Chuva 0.06 pol
Altura de Neve Não disponível
UV 7 em vez de 12
Pólen 8.00 em vez de 12
Qualidade do Ar Não disponível
Flu Activity Sporadic
METAR K20V 271914Z AUTO 29007G15KT 10SM SCT070 SCT085 BKN095 18/00 A3019 RMK AO2 LTG DSNT W

More Conditions Fewer Conditions

Pressão 30.19 pol
Visibilidade 10.0 milhas
Nuvens Nuvens Dispersas 7000 ft
Nuvens Dispersas 8500 ft
Muito Nublado 9500 ft
Ponto de Orvalho 32 °F
Humidade 30%
Chuva 0.06 pol
Altura de Neve Não disponível
UV 7 em vez de 12
Pólen 8.00 em vez de 12
Qualidade do Ar Não disponível
Flu Activity Sporadic
METAR K20V 271914Z AUTO 29007G15KT 10SM SCT070 SCT085 BKN095 18/00 A3019 RMK AO2 LTG DSNT W

More Conditions Fewer Conditions

10-Day Weather Forecast

Almanac

Astronomia

May. 27, 2015 Nascer Pôr
Hora atual
Crepúsculo civil
Crepúsculo náutico
Crepúsculo astronómico
Lua
Comprimento da luz visível
Duração do Dia
Tomorrow will be .
, % of the Moon is Illuminated

Extremos de Hoje

situação na parte mais alta situação na parte mais baixa

Community

WunderPhotos

Upload Photos

1,824,773 fotografias inseridas!

WunderBlogs® & News

Nearby

Qualidade do Ar

  Qualidade do Ar Índice da Q.A. Poluente
Not available.

Altura da Neve

Estação altura Altitude

Actividade Sísmisca

Cidade Distância Mag. Hora & Data
Mínima magnitude apresentada é 2.5.

Temperaturas das Águas Costeiras

Local Temperatura

Stations

Estações Meteorológicas Próximas

Localização da Estação Temp. Sensação Térmica Ponto de Orvalho Humidade Vento Precip. Elev Actualizado Tipo